Aérodrome :
LOGIN :

S'inscrire | Disclaimer

   EN    FR    IT 

 










Légende :    VFR   VFR Marginal   IFR   IFR Intensif   IFR Très Intensif
Visi : 
Plafond : 
>= 8 km
>= 3000ft
5 à 8 km
1000 à 3000 ft
1500m à 5 km
500 à 1000 ft
800 à 1500m
200 à 500 ft
< 800m
< 200 ft
Symboles :   Orages  Brouillard  Fortes neiges  Fortes précipitations  Vent > 20 kt
SIGMETs :   Divers  Orages  Givrage  Turbulence  Onde Orograph.  Cendres Volcan.






- Altitude de l'aérodrome : 56 ft
- Code IATA : BZR


LFMU - Beziers / Vias

DERNIER METAR :
  • 120000Z AUTO 32006KT 9999 FEW028/// SCT046/// BKN080/// ///TCU 07/04 Q1014

METARs EXPIRÉS :
  • 112330Z AUTO 31010KT 9999 +RA FEW033/// BKN040/// BKN050/// ///TCU 08/05 Q1015
  • 112300Z AUTO 29011KT 9999 FEW037 BKN056 08/05 Q1014
  • 112230Z AUTO 27010KT 9999 SCT036 SCT043 08/05 Q1014
  • 112200Z AUTO 27014KT 9999 BKN038 BKN078 BKN120 08/05 Q1014
  • 112130Z AUTO 26010KT 230V290 CAVOK 08/05 Q1015

TAF TAF LFMU
Valide du 11 à 15h jusqu'au 12 à 15h UTC


111400Z 1115/1215 29003KT 9999 RA SCT048 BKN058 OVC078
BECMG 1115/1117 30012KT
BECMG 1118/1120 VRB03KT NSW
BECMG 1120/1122 25012KT
BECMG 1202/1204 VRB03KT
BECMG 1207/1209 26010KT
ATIS : +33 4 67 90 88 88



MET'MAP, la Météo Aéronautique d'un coup d'oeil ! - Copyright ORBIFLY Décembre 2007 - Disclaimer

ORBIFLY MET'MAP TEAM :

Programmation & Développement : Alexandra Zaïnal
Sur une idée originale de : Baudouin d'Aumeries
Assistance à la programmation : Marc-Olivier Méhu
Soutien technique & logistique : Manuel Goepfert

Contact : metmap@orbifly.com




SOURCES & CREDITS :

   NOAA